Mark Shell — WDI7434 — position and weather

sailwx.info

Track history (hours):
 
Tides and Currents Weather Stations Pressure Air Temp Water Temp Dewpoint Dewpoint Depression Visibility Wind Speed Wind Dir Waves Ship Positions

Mark Shell

Owner: Kirby Inland Marine LP, Houston, TX. More information available from US FCC via Universal Licensing System and Coast Guard Vessel Documentation Center.

Last reported at 2018-Jun-14 15:22 UTC. Time now 2018-Jun-18 00:21 UTC.
Position N 32°44' W 091°05'.

Length 256 m; draft 3 m.

Type: . MMSI: 367728680.

Date/timePositionNaut miles runAvg speedWind from/ knotsBaromVisibWave heightAir tempDewpointWater temp
2018-Jun-14 15:22N 32°44' W 091°05'6 3.6
2018-Jun-14 13:45N 32°39' W 091°09'1 5.2
2018-Jun-14 13:30N 32°38' W 091°09'2 4.9
2018-Jun-14 13:01N 32°36' W 091°08'2 4.5
2018-Jun-14 12:31N 32°34' W 091°06'2 4.2
2018-Jun-14 12:01N 32°32' W 091°06'2 4.6
2018-Jun-14 11:30N 32°30' W 091°07'2 4.5
2018-Jun-14 11:01N 32°28' W 091°06'2 4.5
2018-Jun-14 10:30N 32°27' W 091°04'2 4.9
2018-Jun-14 10:01N 32°26' W 091°01'2 4.4
2018-Jun-14 09:30N 32°24' W 090°60'3 5.1
2018-Jun-14 09:01N 32°21' W 090°60'3 5.5
2018-Jun-14 08:30N 32°21' W 090°57'2 4.8
2018-Jun-14 08:00N 32°20' W 090°54'2 4.5
2018-Jun-14 07:31N 32°18' W 090°55'2 5.0
2018-Jun-14 07:00N 32°16' W 090°57'2 4.4
2018-Jun-14 06:30N 32°15' W 090°59'3 5.5
2018-Jun-14 06:01N 32°12' W 090°59'2 4.6
2018-Jun-14 05:31N 32°10' W 090°60'2 4.6
2018-Jun-14 05:01N 32°08' W 091°01'2 4.2
2018-Jun-14 04:31N 32°08' W 091°03'2 4.7
2018-Jun-14 04:00N 32°08' W 091°06'4 4.2
2018-Jun-14 03:09N 32°05' W 091°04'1 5.2
2018-Jun-14 02:55N 32°04' W 091°03'2 5.2
2018-Jun-14 02:28N 32°01' W 091°04'3 5.6
2018-Jun-14 02:00N 31°59' W 091°06'3 5.3
2018-Jun-14 01:21N 31°59' W 091°10'  
Track history (hours):
 
Tides and Currents Weather Stations Pressure Air Temp Water Temp Dewpoint Dewpoint Depression Visibility Wind Speed Wind Dir Waves Ship Positions

Mark Shell

Owner: Kirby Inland Marine LP, Houston, TX. More information available from US FCC via Universal Licensing System and Coast Guard Vessel Documentation Center.

Last reported at 2018-Jun-14 15:22 UTC. Time now 2018-Jun-18 00:21 UTC.
Position N 32°44' W 091°05'.

Length 256 m; draft 3 m.

Type: . MMSI: 367728680.

Date/timePositionNaut miles runAvg speedWind from/ knotsBaromVisibWave heightAir tempDewpointWater temp
2018-Jun-14 15:22N 32°44' W 091°05'6 3.6
2018-Jun-14 13:45N 32°39' W 091°09'1 5.2
2018-Jun-14 13:30N 32°38' W 091°09'2 4.9
2018-Jun-14 13:01N 32°36' W 091°08'2 4.5
2018-Jun-14 12:31N 32°34' W 091°06'2 4.2
2018-Jun-14 12:01N 32°32' W 091°06'2 4.6
2018-Jun-14 11:30N 32°30' W 091°07'2 4.5
2018-Jun-14 11:01N 32°28' W 091°06'2 4.5
2018-Jun-14 10:30N 32°27' W 091°04'2 4.9
2018-Jun-14 10:01N 32°26' W 091°01'2 4.4
2018-Jun-14 09:30N 32°24' W 090°60'3 5.1
2018-Jun-14 09:01N 32°21' W 090°60'3 5.5
2018-Jun-14 08:30N 32°21' W 090°57'2 4.8
2018-Jun-14 08:00N 32°20' W 090°54'2 4.5
2018-Jun-14 07:31N 32°18' W 090°55'2 5.0
2018-Jun-14 07:00N 32°16' W 090°57'2 4.4
2018-Jun-14 06:30N 32°15' W 090°59'3 5.5
2018-Jun-14 06:01N 32°12' W 090°59'2 4.6
2018-Jun-14 05:31N 32°10' W 090°60'2 4.6
2018-Jun-14 05:01N 32°08' W 091°01'2 4.2
2018-Jun-14 04:31N 32°08' W 091°03'2 4.7
2018-Jun-14 04:00N 32°08' W 091°06'4 4.2
2018-Jun-14 03:09N 32°05' W 091°04'1 5.2
2018-Jun-14 02:55N 32°04' W 091°03'2 5.2
2018-Jun-14 02:28N 32°01' W 091°04'3 5.6
2018-Jun-14 02:00N 31°59' W 091°06'3 5.3
2018-Jun-14 01:21N 31°59' W 091°10'  

Dump ship's entire track history